Time;durP1;ratioP1;P1;durP2;ratioP2;P2;SDS_P1;SDS_P2;PMS_P1;PMS_P2;Temp;Humidity;BMP_temperature;BMP_pressure;BME280_temperature;BME280_humidity;BME280_pressure;Samples;Min_cycle;Max_cycle;Signal;HPM_P1;HPM_P2
2023/04/21 00:04:27;;;;;;;9.43;3.38;;;;;;;;;;10249799;28;20380;-66
2023/04/21 00:09:27;;;;;;;5.25;3.00;;;;;;;;;;10258180;28;20028;-69
2023/04/21 00:14:28;;;;;;;3.78;3.00;;;;;;;;;;10252357;28;20039;-70
2023/04/21 00:19:29;;;;;;;3.63;2.92;;;;;;;;;;10251804;28;20074;-70
2023/04/21 00:24:29;;;;;;;5.78;3.20;;;;;;;;;;10251078;28;20031;-72
2023/04/21 00:29:30;;;;;;;3.60;2.85;;;;;;;;;;10251560;28;20058;-71
2023/04/21 00:34:30;;;;;;;6.00;3.53;;;;;;;;;;10249417;28;20042;-72
2023/04/21 00:39:31;;;;;;;5.88;3.00;;;;;;;;;;10263955;28;20038;-56
2023/04/21 00:44:31;;;;;;;3.85;2.85;;;;;;;;;;10249941;28;20027;-71
2023/04/21 00:49:32;;;;;;;3.08;2.38;;;;;;;;;;10250974;28;20059;-70
2023/04/21 00:54:35;;;;;;;4.28;2.60;;;;;;;;;;10249709;28;20567;-68
2023/04/21 00:59:35;;;;;;;4.13;2.70;;;;;;;;;;10249413;28;20122;-68
2023/04/21 01:04:38;;;;;;;5.00;2.95;;;;;;;;;;10251548;28;20645;-70
2023/04/21 01:09:39;;;;;;;3.38;2.58;;;;;;;;;;10257239;28;20027;-67
2023/04/21 01:14:40;;;;;;;4.28;2.58;;;;;;;;;;10247813;28;20043;-69
2023/04/21 01:19:41;;;;;;;3.40;2.63;;;;;;;;;;10236559;28;20023;-67
2023/04/21 01:24:46;;;;;;;3.35;2.65;;;;;;;;;;10249946;28;20081;-67
2023/04/21 01:29:50;;;;;;;2.58;2.38;;;;;;;;;;10248707;28;20443;-70
2023/04/21 01:34:51;;;;;;;2.65;2.38;;;;;;;;;;10248976;28;20039;-67
2023/04/21 01:39:56;;;;;;;3.05;2.67;;;;;;;;;;10247590;28;20471;-55
2023/04/21 01:44:57;;;;;;;3.85;2.15;;;;;;;;;;10247740;28;20050;-57
2023/04/21 01:49:58;;;;;;;6.65;2.83;;;;;;;;;;10250731;28;20031;-57
2023/04/21 01:54:59;;;;;;;9.75;2.50;;;;;;;;;;10256953;28;20055;-57
2023/04/21 02:00:00;;;;;;;4.82;2.60;;;;;;;;;;10248319;28;20066;-57
2023/04/21 02:05:00;;;;;;;2.58;2.30;;;;;;;;;;10247245;28;20051;-57
2023/04/21 02:10:01;;;;;;;2.78;2.20;;;;;;;;;;10244553;28;20019;-59
2023/04/21 02:15:02;;;;;;;2.78;2.33;;;;;;;;;;10246669;28;20422;-59
2023/04/21 02:20:04;;;;;;;2.97;2.53;;;;;;;;;;10259891;28;20035;-59
2023/04/21 02:25:05;;;;;;;2.47;2.28;;;;;;;;;;10254471;28;20447;-57
2023/04/21 02:30:06;;;;;;;4.32;2.20;;;;;;;;;;10251208;28;20038;-59
2023/04/21 02:35:08;;;;;;;5.70;2.40;;;;;;;;;;10255043;28;20038;-58
2023/04/21 02:40:09;;;;;;;4.28;2.22;;;;;;;;;;10243382;28;20603;-57
2023/04/21 02:45:10;;;;;;;4.00;2.13;;;;;;;;;;10246704;28;20034;-56
2023/04/21 02:50:13;;;;;;;2.80;2.15;;;;;;;;;;10246783;28;20062;-57
2023/04/21 02:55:13;;;;;;;3.22;2.40;;;;;;;;;;10244774;28;20058;-64
2023/04/21 03:00:14;;;;;;;4.97;2.10;;;;;;;;;;10244946;28;20031;-57
2023/04/21 03:05:15;;;;;;;2.80;2.30;;;;;;;;;;10244494;28;20122;-57
2023/04/21 03:10:15;;;;;;;2.40;2.20;;;;;;;;;;10236017;28;20058;-57
2023/04/21 03:15:16;;;;;;;3.08;2.30;;;;;;;;;;10244485;28;20102;-58
2023/04/21 03:20:17;;;;;;;2.22;2.03;;;;;;;;;;10241944;28;20126;-57
2023/04/21 03:25:17;;;;;;;3.03;2.35;;;;;;;;;;10221095;28;20098;-58
2023/04/21 03:30:18;;;;;;;2.85;2.20;;;;;;;;;;10222284;28;20035;-57
2023/04/21 03:35:19;;;;;;;2.90;2.13;;;;;;;;;;10243897;28;20399;-57
2023/04/21 03:40:19;;;;;;;2.28;2.08;;;;;;;;;;10244264;28;20031;-60
2023/04/21 03:45:21;;;;;;;3.47;2.10;;;;;;;;;;10249253;28;20039;-57
2023/04/21 03:50:22;;;;;;;2.70;2.00;;;;;;;;;;10249980;28;20117;-56
2023/04/21 03:55:22;;;;;;;2.13;1.90;;;;;;;;;;10262264;28;20047;-56
2023/04/21 04:00:23;;;;;;;2.20;2.00;;;;;;;;;;10266958;28;20108;-56
2023/04/21 04:05:24;;;;;;;2.50;2.30;;;;;;;;;;10250840;28;20027;-57
2023/04/21 04:10:24;;;;;;;2.95;2.05;;;;;;;;;;10251449;28;20034;-54
2023/04/21 04:15:25;;;;;;;2.28;2.08;;;;;;;;;;10251313;28;20023;-55
2023/04/21 04:20:25;;;;;;;2.20;2.00;;;;;;;;;;10251698;28;20030;-57
2023/04/21 04:25:26;;;;;;;3.10;2.00;;;;;;;;;;10238434;28;20035;-57
2023/04/21 04:30:27;;;;;;;3.78;2.30;;;;;;;;;;10249329;28;20042;-57
2023/04/21 04:35:28;;;;;;;2.10;1.90;;;;;;;;;;10242429;28;20062;-57
2023/04/21 04:40:29;;;;;;;2.70;2.10;;;;;;;;;;10251477;28;20031;-55
2023/04/21 04:45:31;;;;;;;1.90;1.80;;;;;;;;;;10275214;28;20387;-55
2023/04/21 04:50:32;;;;;;;2.20;2.10;;;;;;;;;;10249951;28;20032;-57
2023/04/21 04:55:33;;;;;;;2.92;2.22;;;;;;;;;;10261739;28;20483;-56
2023/04/21 05:00:33;;;;;;;2.05;1.85;;;;;;;;;;10262273;28;20447;-57
2023/04/21 05:05:34;;;;;;;2.55;2.17;;;;;;;;;;10248213;28;20093;-57
2023/04/21 05:10:35;;;;;;;2.13;1.98;;;;;;;;;;10249181;28;20031;-56
2023/04/21 05:15:35;;;;;;;2.90;1.90;;;;;;;;;;10248593;28;20027;-57
2023/04/21 05:20:39;;;;;;;2.38;2.00;;;;;;;;;;10242981;28;20476;-60
2023/04/21 05:25:40;;;;;;;4.43;1.92;;;;;;;;;;10238518;28;20040;-56
2023/04/21 05:30:40;;;;;;;2.20;2.00;;;;;;;;;;10238524;28;20031;-57
2023/04/21 05:35:41;;;;;;;3.90;2.05;;;;;;;;;;10261154;28;20118;-57
2023/04/21 05:40:41;;;;;;;6.82;2.17;;;;;;;;;;10247389;28;20062;-57
2023/04/21 05:45:42;;;;;;;4.78;2.60;;;;;;;;;;10266244;28;20034;-57
2023/04/21 05:50:42;;;;;;;4.63;2.05;;;;;;;;;;10249838;28;20435;-57
2023/04/21 05:55:43;;;;;;;3.08;2.15;;;;;;;;;;10256817;28;20390;-57
2023/04/21 06:00:45;;;;;;;12.13;2.55;;;;;;;;;;10247417;28;20090;-60
2023/04/21 06:05:46;;;;;;;14.27;2.45;;;;;;;;;;10232106;28;20034;-64
2023/04/21 06:10:46;;;;;;;18.30;3.22;;;;;;;;;;10246795;28;20043;-62
2023/04/21 06:15:47;;;;;;;7.85;2.10;;;;;;;;;;10246009;28;20035;-60
2023/04/21 06:20:52;;;;;;;27.80;2.75;;;;;;;;;;10259656;28;20024;-61
2023/04/21 06:26:04;;;;;;;14.73;2.58;;;;;;;;;;10246704;28;20042;-60
2023/04/21 06:31:05;;;;;;;5.45;2.33;;;;;;;;;;10247933;28;20070;-60
2023/04/21 06:36:06;;;;;;;5.57;2.42;;;;;;;;;;10248312;28;20443;-61
2023/04/21 06:41:07;;;;;;;6.35;2.45;;;;;;;;;;10250930;28;20098;-72
2023/04/21 06:46:08;;;;;;;7.07;2.10;;;;;;;;;;10247454;28;20027;-61
2023/04/21 06:51:09;;;;;;;12.15;2.47;;;;;;;;;;10241839;28;20039;-64
2023/04/21 06:56:09;;;;;;;3.38;1.90;;;;;;;;;;10249169;28;20035;-61
2023/04/21 07:01:10;;;;;;;4.97;2.47;;;;;;;;;;10246571;28;20047;-60
2023/04/21 07:06:11;;;;;;;6.72;2.60;;;;;;;;;;10235251;28;20035;-61
2023/04/21 07:11:11;;;;;;;6.97;2.15;;;;;;;;;;10243261;28;20043;-61
2023/04/21 07:16:12;;;;;;;5.22;2.30;;;;;;;;;;10244438;28;20031;-61
2023/04/21 07:21:12;;;;;;;4.22;2.30;;;;;;;;;;10242186;28;20233;-60
2023/04/21 07:26:13;;;;;;;8.43;2.55;;;;;;;;;;10246254;28;20113;-60
2023/04/21 07:31:13;;;;;;;2.83;2.30;;;;;;;;;;10251603;28;20126;-60
2023/04/21 07:36:14;;;;;;;6.35;2.03;;;;;;;;;;10240687;28;20031;-61
2023/04/21 07:41:15;;;;;;;6.72;2.03;;;;;;;;;;10250997;28;20042;-60
2023/04/21 07:46:15;;;;;;;3.60;1.90;;;;;;;;;;10251232;28;20059;-61
2023/04/21 07:51:16;;;;;;;3.83;2.25;;;;;;;;;;10251114;28;20402;-64
2023/04/21 07:56:17;;;;;;;7.63;2.13;;;;;;;;;;10241875;28;20046;-61
2023/04/21 08:01:19;;;;;;;3.70;2.55;;;;;;;;;;10255020;28;20029;-60
2023/04/21 08:06:19;;;;;;;6.10;2.00;;;;;;;;;;10252043;28;20109;-65
2023/04/21 08:11:21;;;;;;;2.70;2.10;;;;;;;;;;10245119;28;20094;-63
2023/04/21 08:16:21;;;;;;;3.47;2.08;;;;;;;;;;10244696;28;20102;-60
2023/04/21 08:21:23;;;;;;;5.18;2.05;;;;;;;;;;10234482;28;20090;-60
2023/04/21 08:26:24;;;;;;;3.75;2.60;;;;;;;;;;10253774;28;20369;-61
2023/04/21 08:31:25;;;;;;;5.80;2.20;;;;;;;;;;10244413;28;20031;-61
2023/04/21 08:36:26;;;;;;;4.30;2.00;;;;;;;;;;10248082;28;20039;-60
2023/04/21 08:41:27;;;;;;;4.30;1.90;;;;;;;;;;10250272;28;20035;-65
2023/04/21 08:46:28;;;;;;;4.82;2.10;;;;;;;;;;10253122;28;21603;-62
2023/04/21 08:51:31;;;;;;;2.72;2.03;;;;;;;;;;10256344;28;20073;-69
2023/04/21 08:56:32;;;;;;;2.65;1.88;;;;;;;;;;10245099;28;20102;-62
2023/04/21 09:01:33;;;;;;;3.85;1.77;;;;;;;;;;10252365;28;20035;-61
2023/04/21 09:06:42;;;;;;;3.90;1.98;;;;;;;;;;10245778;28;20108;-61
2023/04/21 09:11:42;;;;;;;2.88;2.10;;;;;;;;;;10246044;28;20403;-64
2023/04/21 09:16:43;;;;;;;3.40;2.00;;;;;;;;;;10236948;28;20027;-68
2023/04/21 09:21:44;;;;;;;3.60;1.88;;;;;;;;;;10241955;28;20071;-68
2023/04/21 09:26:52;;;;;;;6.72;2.28;;;;;;;;;;10250024;28;20043;-67
2023/04/21 09:31:53;;;;;;;;;;;;;;;;;;10240252;28;20055;-61
2023/04/21 09:37:03;;;;;;;16.45;2.38;;;;;;;;;;10249459;28;20020;-62
2023/04/21 09:42:03;;;;;;;8.18;2.25;;;;;;;;;;10253201;28;20114;-64
2023/04/21 09:47:08;;;;;;;7.22;1.95;;;;;;;;;;10245851;28;20042;-60
2023/04/21 09:52:12;;;;;;;9.52;1.88;;;;;;;;;;10249161;28;20375;-63
2023/04/21 09:57:16;;;;;;;5.63;2.20;;;;;;;;;;10246157;28;20438;-60
2023/04/21 10:02:18;;;;;;;4.57;1.90;;;;;;;;;;10228559;28;20126;-64
2023/04/21 10:07:18;;;;;;;3.80;2.03;;;;;;;;;;10246989;28;20084;-60
2023/04/21 10:12:20;;;;;;;3.80;2.00;;;;;;;;;;10251236;28;20502;-65
2023/04/21 10:17:25;;;;;;;4.35;2.22;;;;;;;;;;10245760;28;20043;-61
2023/04/21 10:22:31;;;;;;;6.18;2.58;;;;;;;;;;10246882;28;20027;-60
2023/04/21 10:27:39;;;;;;;3.95;2.05;;;;;;;;;;10250603;28;20046;-62
2023/04/21 10:32:41;;;;;;;2.07;1.87;;;;;;;;;;10241654;28;20027;-61
2023/04/21 10:37:46;;;;;;;5.38;1.98;;;;;;;;;;10242104;28;20469;-71
2023/04/21 10:42:48;;;;;;;3.15;1.77;;;;;;;;;;10246025;28;20034;-64
2023/04/21 10:47:50;;;;;;;2.65;1.90;;;;;;;;;;10243155;28;20523;-63
2023/04/21 10:53:10;;;;;;;5.90;1.77;;;;;;;;;;10251791;28;20043;-60
2023/04/21 10:58:10;;;;;;;7.10;1.88;;;;;;;;;;10277890;28;20364;-60
2023/04/21 11:03:11;;;;;;;6.85;2.25;;;;;;;;;;10251306;28;20031;-61
2023/04/21 11:08:14;;;;;;;4.32;2.13;;;;;;;;;;10245455;28;20061;-60
2023/04/21 11:13:15;;;;;;;3.55;2.28;;;;;;;;;;10225303;28;20545;-72
2023/04/21 11:18:17;;;;;;;5.70;2.15;;;;;;;;;;10253577;28;20074;-60
2023/04/21 11:23:17;;;;;;;3.70;2.15;;;;;;;;;;10242914;28;20030;-65
2023/04/21 11:28:21;;;;;;;2.45;2.00;;;;;;;;;;10243229;28;20043;-60
2023/04/21 11:33:21;;;;;;;2.20;1.90;;;;;;;;;;10251708;28;20067;-61
2023/04/21 11:38:23;;;;;;;3.75;2.20;;;;;;;;;;10236055;28;20110;-60
2023/04/21 11:43:24;;;;;;;2.95;2.03;;;;;;;;;;10234652;28;20032;-62
2023/04/21 11:48:28;;;;;;;5.13;2.28;;;;;;;;;;10235035;28;20031;-61
2023/04/21 11:53:29;;;;;;;4.47;1.92;;;;;;;;;;10243219;28;20043;-64
2023/04/21 11:58:30;;;;;;;6.45;2.20;;;;;;;;;;10245011;28;20027;-61
2023/04/21 12:03:31;;;;;;;3.42;2.20;;;;;;;;;;10262818;28;20031;-61
2023/04/21 12:08:32;;;;;;;8.25;2.38;;;;;;;;;;10251346;28;20495;-60
2023/04/21 12:13:34;;;;;;;4.25;2.25;;;;;;;;;;10262439;28;20035;-62
2023/04/21 12:18:35;;;;;;;2.75;1.95;;;;;;;;;;10253929;28;20509;-61
2023/04/21 12:23:37;;;;;;;15.75;1.95;;;;;;;;;;10264809;28;20034;-60
2023/04/21 12:28:38;;;;;;;6.97;2.28;;;;;;;;;;10255009;28;20035;-64
2023/04/21 12:33:39;;;;;;;10.25;2.30;;;;;;;;;;10241576;28;20387;-63
2023/04/21 12:38:39;;;;;;;8.43;2.60;;;;;;;;;;10251785;28;20110;-60
2023/04/21 12:43:40;;;;;;;3.80;1.98;;;;;;;;;;10252909;28;20035;-67
2023/04/21 12:48:41;;;;;;;3.63;2.05;;;;;;;;;;10251451;28;20047;-62
2023/04/21 12:53:41;;;;;;;11.60;2.00;;;;;;;;;;10240659;28;20055;-67
2023/04/21 12:58:42;;;;;;;2.15;1.88;;;;;;;;;;10245340;28;20031;-64
2023/04/21 13:03:42;;;;;;;3.90;2.10;;;;;;;;;;10253348;28;20031;-61
2023/04/21 13:08:43;;;;;;;3.53;2.05;;;;;;;;;;10248635;28;20024;-60
2023/04/21 13:13:43;;;;;;;3.15;2.15;;;;;;;;;;10247796;28;20035;-61
2023/04/21 13:18:45;;;;;;;4.47;2.42;;;;;;;;;;10248714;28;20043;-69
2023/04/21 13:23:46;;;;;;;3.80;2.38;;;;;;;;;;10261252;28;20035;-60
2023/04/21 13:28:47;;;;;;;4.38;2.70;;;;;;;;;;10250170;28;20023;-61
2023/04/21 13:33:47;;;;;;;4.38;2.38;;;;;;;;;;10268191;28;20363;-60
2023/04/21 13:38:49;;;;;;;8.48;2.25;;;;;;;;;;10264689;28;20035;-67
2023/04/21 13:43:51;;;;;;;4.60;2.38;;;;;;;;;;10261144;28;20090;-69
2023/04/21 13:48:51;;;;;;;7.57;2.50;;;;;;;;;;10242344;28;20119;-61
2023/04/21 13:53:52;;;;;;;4.90;2.30;;;;;;;;;;10240986;28;20138;-60
2023/04/21 13:58:54;;;;;;;2.55;2.35;;;;;;;;;;10252438;28;20421;-70
2023/04/21 14:03:55;;;;;;;4.03;2.35;;;;;;;;;;10242156;28;20031;-60
2023/04/21 14:08:56;;;;;;;2.97;2.47;;;;;;;;;;10229525;28;20070;-72
2023/04/21 14:13:57;;;;;;;3.42;2.30;;;;;;;;;;10222534;28;20031;-60
2023/04/21 14:18:59;;;;;;;4.82;2.20;;;;;;;;;;10248516;28;20031;-60
2023/04/21 14:24:00;;;;;;;2.28;2.08;;;;;;;;;;10249822;28;20487;-70
2023/04/21 14:29:01;;;;;;;5.15;2.10;;;;;;;;;;10238877;28;20027;-68
2023/04/21 14:34:02;;;;;;;4.78;2.33;;;;;;;;;;10247438;28;20031;-63
2023/04/21 14:39:03;;;;;;;2.85;2.33;;;;;;;;;;10241139;28;20038;-65
2023/04/21 14:44:04;;;;;;;3.33;2.53;;;;;;;;;;10239004;28;20407;-62
2023/04/21 14:49:04;;;;;;;3.88;2.50;;;;;;;;;;10236691;28;20043;-65
2023/04/21 14:54:05;;;;;;;3.17;2.70;;;;;;;;;;10281861;23;20082;-52
2023/04/21 14:59:06;;;;;;;3.75;2.88;;;;;;;;;;10293568;28;20035;-51
2023/04/21 15:04:06;;;;;;;7.10;2.88;;;;;;;;;;10289228;28;20470;-52
2023/04/21 15:09:07;;;;;;;6.03;3.38;;;;;;;;;;10293989;28;20023;-49
2023/04/21 15:14:08;;;;;;;3.78;3.38;;;;;;;;;;10290999;28;20482;-51
2023/04/21 15:19:09;;;;;;;4.68;3.30;;;;;;;;;;10269978;28;20035;-52
2023/04/21 15:24:10;;;;;;;4.45;3.60;;;;;;;;;;10292026;28;20459;-50
2023/04/21 15:29:11;;;;;;;3.95;2.97;;;;;;;;;;10278724;28;20027;-51
2023/04/21 15:34:11;;;;;;;4.88;3.15;;;;;;;;;;10290700;28;20027;-52
2023/04/21 15:39:15;;;;;;;3.92;3.55;;;;;;;;;;10289119;28;20386;-51
2023/04/21 15:44:15;;;;;;;3.83;3.50;;;;;;;;;;10284101;28;20435;-49
2023/04/21 15:49:16;;;;;;;12.63;3.80;;;;;;;;;;10287969;28;20096;-50
2023/04/21 15:54:16;;;;;;;5.40;3.60;;;;;;;;;;10288386;28;20054;-51
2023/04/21 15:59:17;;;;;;;5.47;3.83;;;;;;;;;;10285399;28;20035;-50
2023/04/21 16:04:17;;;;;;;7.90;4.10;;;;;;;;;;10287122;28;20159;-51
2023/04/21 16:09:20;;;;;;;4.20;3.72;;;;;;;;;;10285253;28;20046;-50
2023/04/21 16:14:20;;;;;;;5.03;3.80;;;;;;;;;;10284056;28;20229;-53
2023/04/21 16:19:21;;;;;;;7.45;3.90;;;;;;;;;;10288513;28;20170;-49
2023/04/21 16:24:21;;;;;;;6.25;3.75;;;;;;;;;;10280701;28;20030;-52
2023/04/21 16:29:22;;;;;;;8.13;3.55;;;;;;;;;;10279653;28;20031;-53
2023/04/21 16:34:22;;;;;;;4.65;3.13;;;;;;;;;;10281258;28;20034;-51
2023/04/21 16:39:23;;;;;;;6.68;3.40;;;;;;;;;;10289415;28;20035;-49
2023/04/21 16:44:24;;;;;;;4.88;3.78;;;;;;;;;;10290908;28;20026;-51
2023/04/21 16:49:24;;;;;;;5.60;3.45;;;;;;;;;;10295784;28;20042;-50
2023/04/21 16:54:25;;;;;;;4.32;3.40;;;;;;;;;;10296190;28;20042;-51
2023/04/21 16:59:25;;;;;;;3.92;3.33;;;;;;;;;;10290156;28;20093;-51
2023/04/21 17:04:26;;;;;;;4.60;3.58;;;;;;;;;;10299920;28;20026;-50
2023/04/21 17:09:27;;;;;;;7.28;3.22;;;;;;;;;;10297717;28;20034;-49
2023/04/21 17:14:28;;;;;;;3.47;3.15;;;;;;;;;;10294155;28;20101;-49
2023/04/21 17:19:28;;;;;;;4.40;4.00;;;;;;;;;;10291409;28;20143;-51
2023/04/21 17:24:29;;;;;;;3.88;3.33;;;;;;;;;;10310890;28;20225;-48
2023/04/21 17:29:29;;;;;;;4.38;3.58;;;;;;;;;;10290883;28;20438;-50
2023/04/21 17:34:30;;;;;;;15.45;4.50;;;;;;;;;;10292637;28;20471;-52
2023/04/21 17:39:31;;;;;;;22.50;5.13;;;;;;;;;;10285825;28;20082;-52
2023/04/21 17:44:32;;;;;;;24.13;5.10;;;;;;;;;;10293757;28;20043;-51
2023/04/21 17:49:36;;;;;;;13.20;3.90;;;;;;;;;;10278965;28;20018;-52
2023/04/21 17:54:36;;;;;;;10.90;4.40;;;;;;;;;;10288151;28;20047;-52
2023/04/21 17:59:38;;;;;;;12.35;4.55;;;;;;;;;;10306777;28;20482;-50
2023/04/21 18:04:38;;;;;;;7.22;4.18;;;;;;;;;;10293968;28;20029;-54
2023/04/21 18:09:39;;;;;;;13.30;3.92;;;;;;;;;;10283355;28;20534;-53
2023/04/21 18:14:39;;;;;;;11.23;3.97;;;;;;;;;;10286183;28;20054;-53
2023/04/21 18:19:40;;;;;;;15.73;4.80;;;;;;;;;;10303967;28;20379;-56
2023/04/21 18:24:41;;;;;;;6.47;3.92;;;;;;;;;;10298570;28;20471;-53
2023/04/21 18:29:41;;;;;;;10.32;4.18;;;;;;;;;;10290019;28;20038;-58
2023/04/21 18:34:42;;;;;;;6.40;3.47;;;;;;;;;;10283759;28;20035;-54
2023/04/21 18:39:42;;;;;;;6.50;4.03;;;;;;;;;;10272751;28;20109;-55
2023/04/21 18:44:43;;;;;;;7.28;4.13;;;;;;;;;;10290700;28;20026;-54
2023/04/21 18:49:44;;;;;;;5.35;3.97;;;;;;;;;;10275474;28;20498;-52
2023/04/21 18:54:44;;;;;;;8.60;4.20;;;;;;;;;;10278326;28;20104;-60
2023/04/21 18:59:45;;;;;;;10.25;4.30;;;;;;;;;;10290984;28;20030;-54
2023/04/21 19:04:46;;;;;;;9.18;3.90;;;;;;;;;;10281804;28;20034;-52
2023/04/21 19:09:46;;;;;;;8.77;4.20;;;;;;;;;;10286717;28;20098;-57
2023/04/21 19:14:47;;;;;;;5.82;3.67;;;;;;;;;;10287626;28;20022;-57
2023/04/21 19:19:49;;;;;;;8.57;4.22;;;;;;;;;;10287734;28;20026;-52
2023/04/21 19:24:50;;;;;;;8.45;3.70;;;;;;;;;;10297771;28;20034;-51
2023/04/21 19:29:50;;;;;;;5.85;3.80;;;;;;;;;;10274335;28;20023;-52
2023/04/21 19:34:51;;;;;;;5.60;4.20;;;;;;;;;;10277273;28;20054;-50
2023/04/21 19:39:52;;;;;;;5.10;3.72;;;;;;;;;;10284188;28;20035;-58
2023/04/21 19:44:52;;;;;;;4.75;3.70;;;;;;;;;;10273016;28;20065;-55
2023/04/21 19:49:53;;;;;;;13.45;4.10;;;;;;;;;;10272074;28;20498;-51
2023/04/21 19:54:53;;;;;;;8.13;3.78;;;;;;;;;;10266277;28;20050;-57
2023/04/21 19:59:54;;;;;;;3.55;3.20;;;;;;;;;;10278036;28;20027;-63
2023/04/21 20:04:54;;;;;;;6.50;3.72;;;;;;;;;;10269745;28;20035;-60
2023/04/21 20:09:55;;;;;;;5.53;3.35;;;;;;;;;;10272132;28;20038;-51
2023/04/21 20:14:56;;;;;;;5.07;3.42;;;;;;;;;;10271665;28;20043;-53
2023/04/21 20:19:57;;;;;;;9.82;3.80;;;;;;;;;;10285713;28;20072;-48
2023/04/21 20:24:58;;;;;;;4.78;3.55;;;;;;;;;;10280328;28;20033;-51
2023/04/21 20:29:58;;;;;;;4.72;3.80;;;;;;;;;;10276340;28;20043;-49
2023/04/21 20:34:59;;;;;;;10.52;4.22;;;;;;;;;;10277478;28;20041;-58
2023/04/21 20:40:02;;;;;;;10.90;4.65;;;;;;;;;;10282793;28;20063;-54
2023/04/21 20:45:05;;;;;;;5.78;4.18;;;;;;;;;;10277288;28;20108;-47
2023/04/21 20:50:06;;;;;;;10.90;4.53;;;;;;;;;;10280360;28;20031;-52
2023/04/21 20:55:08;;;;;;;6.57;4.35;;;;;;;;;;10282320;28;20104;-47
2023/04/21 21:00:09;;;;;;;10.30;4.70;;;;;;;;;;10282752;28;20574;-59
2023/04/21 21:05:10;;;;;;;6.80;4.38;;;;;;;;;;10278168;28;20034;-47
2023/04/21 21:10:11;;;;;;;6.80;4.63;;;;;;;;;;10279350;28;20034;-52
2023/04/21 21:15:12;;;;;;;7.43;4.72;;;;;;;;;;10274876;28;20031;-46
2023/04/21 21:20:13;;;;;;;7.90;4.90;;;;;;;;;;10280520;28;20031;-49
2023/04/21 21:25:13;;;;;;;8.27;4.88;;;;;;;;;;10287878;28;20039;-46
2023/04/21 21:30:14;;;;;;;12.98;4.93;;;;;;;;;;10277899;28;20041;-49
2023/04/21 21:35:15;;;;;;;12.32;5.63;;;;;;;;;;10280342;28;20108;-51
2023/04/21 21:40:15;;;;;;;14.23;5.10;;;;;;;;;;10274094;28;20635;-50
2023/04/21 21:45:16;;;;;;;15.25;5.53;;;;;;;;;;10277550;28;20062;-49
2023/04/21 21:50:17;;;;;;;10.88;5.55;;;;;;;;;;10289722;23;20118;-54
2023/04/21 21:55:18;;;;;;;13.02;5.63;;;;;;;;;;10285893;28;20026;-48
2023/04/21 22:00:19;;;;;;;16.88;5.63;;;;;;;;;;10274732;28;20490;-54
2023/04/21 22:05:20;;;;;;;10.75;5.18;;;;;;;;;;10276091;28;20508;-62
2023/04/21 22:10:23;;;;;;;19.02;5.28;;;;;;;;;;10282601;28;20031;-57
2023/04/21 22:15:24;;;;;;;11.75;5.63;;;;;;;;;;10278898;28;20525;-59
2023/04/21 22:20:30;;;;;;;17.08;6.18;;;;;;;;;;10284150;23;20035;-59
2023/04/21 22:25:31;;;;;;;9.23;4.93;;;;;;;;;;10281483;28;20158;-56
2023/04/21 22:30:32;;;;;;;14.45;4.88;;;;;;;;;;10277674;28;20195;-50
2023/04/21 22:35:32;;;;;;;12.43;5.15;;;;;;;;;;10273301;28;20093;-49
2023/04/21 22:40:34;;;;;;;16.83;5.22;;;;;;;;;;10280996;28;20042;-57
2023/04/21 22:45:35;;;;;;;9.40;4.90;;;;;;;;;;10277550;28;20121;-58
2023/04/21 22:50:36;;;;;;;9.38;5.07;;;;;;;;;;10272700;28;20031;-50
2023/04/21 22:55:36;;;;;;;18.63;5.38;;;;;;;;;;10288074;28;20026;-53
2023/04/21 23:00:37;;;;;;;9.65;4.90;;;;;;;;;;10278498;28;20030;-54
2023/04/21 23:05:38;;;;;;;9.05;4.55;;;;;;;;;;10281497;28;20027;-53
2023/04/21 23:10:39;;;;;;;8.07;4.68;;;;;;;;;;10276113;28;20438;-59
2023/04/21 23:15:40;;;;;;;8.23;4.93;;;;;;;;;;10287007;28;20080;-49
2023/04/21 23:20:40;;;;;;;8.25;4.60;;;;;;;;;;10282383;28;20050;-51
2023/04/21 23:25:41;;;;;;;11.38;4.72;;;;;;;;;;10272492;28;20030;-52
2023/04/21 23:30:41;;;;;;;11.23;5.10;;;;;;;;;;10279053;28;20027;-62
2023/04/21 23:35:42;;;;;;;10.35;4.70;;;;;;;;;;10279063;28;20033;-50
2023/04/21 23:40:42;;;;;;;11.90;5.07;;;;;;;;;;10270322;28;20514;-55
2023/04/21 23:45:43;;;;;;;9.55;4.50;;;;;;;;;;10285769;28;20049;-54
2023/04/21 23:50:44;;;;;;;11.40;4.82;;;;;;;;;;10280967;28;21926;-59
2023/04/21 23:55:45;;;;;;;10.90;4.55;;;;;;;;;;10281326;28;20364;-61
